createdAt,value
2022-12-03T00:01:16.862Z,70.68
2022-12-03T00:03:44.604Z,76.14
2022-12-03T00:06:11.993Z,73.46
2022-12-03T00:08:39.361Z,71.48
2022-12-03T00:11:07.774Z,71.57
2022-12-03T00:13:35.201Z,72.77
2022-12-03T00:16:02.734Z,73.86
2022-12-03T00:18:30.378Z,72.92
2022-12-03T00:20:57.709Z,73.28
2022-12-03T00:23:25.216Z,71.58
2022-12-03T00:25:53.015Z,73.04
2022-12-03T00:28:20.344Z,73.61
2022-12-03T00:30:47.755Z,73.79
2022-12-03T00:33:15.425Z,74.80
2022-12-03T00:35:42.806Z,73.79
2022-12-03T00:38:10.151Z,75.14
2022-12-03T00:40:37.737Z,71.69
2022-12-03T00:43:05.047Z,72.70
2022-12-03T00:45:32.421Z,73.50
2022-12-03T00:48:00.025Z,77.49
2022-12-03T00:50:27.344Z,74.06
2022-12-03T00:52:54.702Z,75.67
2022-12-03T00:55:22.293Z,73.25
2022-12-03T00:57:49.649Z,75.39
2022-12-03T01:00:17.249Z,73.77
2022-12-03T01:02:44.859Z,74.17
2022-12-03T01:05:12.275Z,74.53
2022-12-03T01:07:39.781Z,76.31
2022-12-03T01:10:07.782Z,74.54
2022-12-03T01:12:35.092Z,73.58
2022-12-03T01:15:02.433Z,71.30
2022-12-03T01:17:30.218Z,70.06
2022-12-03T01:19:59.043Z,73.34
2022-12-03T01:22:26.420Z,71.23
2022-12-03T01:24:54.333Z,74.82
2022-12-03T01:27:22.444Z,72.74
2022-12-03T01:29:49.764Z,75.93
2022-12-03T01:32:17.475Z,72.06
2022-12-03T01:34:54.867Z,71.86
2022-12-03T01:37:24.954Z,76.62
2022-12-03T01:39:52.354Z,75.56
2022-12-03T01:42:24.317Z,73.41
2022-12-03T01:44:53.345Z,70.98
2022-12-03T01:47:22.305Z,72.89
2022-12-03T01:49:53.315Z,73.15
2022-12-03T01:52:24.035Z,73.52
2022-12-03T01:54:53.980Z,71.54
2022-12-03T01:57:43.932Z,74.04
2022-12-03T02:00:14.469Z,72.37
2022-12-03T02:02:42.086Z,73.26
2022-12-03T02:05:16.741Z,71.05
2022-12-03T02:07:44.131Z,73.11
2022-12-03T02:10:12.627Z,71.93
2022-12-03T02:13:03.725Z,74.85
2022-12-03T02:15:31.323Z,73.07
2022-12-03T02:17:58.636Z,78.32
2022-12-03T02:20:26.003Z,75.00
2022-12-03T02:23:13.665Z,78.18
2022-12-03T02:25:41.049Z,77.18
2022-12-03T02:28:08.857Z,73.50
2022-12-03T02:30:36.230Z,74.00
2022-12-03T02:33:03.607Z,71.72
2022-12-03T02:35:33.563Z,74.52
2022-12-03T02:38:26.197Z,74.59
2022-12-03T02:40:55.511Z,72.81
2022-12-03T02:43:22.866Z,75.68
2022-12-03T02:45:55.175Z,75.30
2022-12-03T02:48:31.002Z,72.20
2022-12-03T02:51:00.280Z,72.00
2022-12-03T02:53:33.743Z,71.23
2022-12-03T02:56:01.930Z,74.79
2022-12-03T02:58:30.147Z,71.66
2022-12-03T03:00:57.569Z,74.24
2022-12-03T03:03:25.145Z,72.16
2022-12-03T03:05:52.828Z,72.73
2022-12-03T03:08:20.228Z,73.39
2022-12-03T03:10:47.649Z,75.74
2022-12-03T03:13:17.040Z,72.56
2022-12-03T03:15:44.515Z,70.26
2022-12-03T03:18:12.661Z,70.03
2022-12-03T03:20:40.350Z,71.05
2022-12-03T03:23:10.667Z,70.71
2022-12-03T03:25:38.769Z,70.82
2022-12-03T03:28:06.412Z,70.02
2022-12-03T03:30:33.959Z,69.45
2022-12-03T03:33:01.260Z,68.11
2022-12-03T03:35:28.931Z,68.20
2022-12-03T03:37:56.315Z,68.68
2022-12-03T03:40:23.687Z,68.28
2022-12-03T03:42:51.477Z,68.30
2022-12-03T03:45:20.667Z,68.21
2022-12-03T03:47:51.672Z,68.05
2022-12-03T03:50:19.019Z,67.44
2022-12-03T03:52:46.360Z,67.95
2022-12-03T03:55:14.084Z,67.27
2022-12-03T03:57:42.274Z,68.24
2022-12-03T04:00:10.045Z,69.42
2022-12-03T04:02:37.674Z,68.62
2022-12-03T04:05:05.411Z,67.82
2022-12-03T04:07:32.805Z,67.27
2022-12-03T04:10:20.430Z,68.16
2022-12-03T04:12:57.217Z,67.74
2022-12-03T04:15:24.994Z,69.20
2022-12-03T04:18:10.777Z,70.72
2022-12-03T04:20:38.680Z,68.72
2022-12-03T04:23:06.238Z,73.85
2022-12-03T04:25:52.405Z,70.56
2022-12-03T04:28:39.224Z,71.43
2022-12-03T04:31:25.899Z,69.63
2022-12-03T04:34:12.375Z,68.36
2022-12-03T04:36:39.730Z,68.55
2022-12-03T04:39:07.359Z,68.94
2022-12-03T04:41:34.668Z,67.80
2022-12-03T04:44:21.000Z,68.37
2022-12-03T04:46:48.577Z,69.30
2022-12-03T04:49:15.963Z,67.82
2022-12-03T04:51:43.319Z,68.88
2022-12-03T04:54:10.949Z,69.23
2022-12-03T04:56:38.302Z,73.33
2022-12-03T04:59:06.659Z,74.33
2022-12-03T05:01:36.599Z,72.49
2022-12-03T05:04:04.033Z,70.92
2022-12-03T05:06:31.383Z,70.44
2022-12-03T05:08:59.006Z,70.44
2022-12-03T05:11:26.329Z,69.31
2022-12-03T05:13:53.854Z,73.07
2022-12-03T05:16:21.505Z,76.17
2022-12-03T05:18:48.892Z,75.81
2022-12-03T05:21:16.263Z,76.35
2022-12-03T05:23:44.131Z,73.81
2022-12-03T05:26:11.462Z,72.62
2022-12-03T05:28:38.839Z,73.76
2022-12-03T05:31:06.575Z,71.48
2022-12-03T05:33:34.076Z,73.50
2022-12-03T05:36:01.428Z,73.47
2022-12-03T05:38:29.042Z,74.05
2022-12-03T05:40:56.440Z,72.01
2022-12-03T05:43:24.180Z,74.74
2022-12-03T05:45:51.848Z,73.68
2022-12-03T05:48:19.241Z,72.70
2022-12-03T05:50:47.077Z,74.15
2022-12-03T05:53:15.198Z,75.88
2022-12-03T05:55:42.593Z,71.75
2022-12-03T05:58:10.014Z,70.46
2022-12-03T06:00:42.459Z,71.79
2022-12-03T06:03:11.007Z,71.10
2022-12-03T06:05:38.561Z,69.55
2022-12-03T06:08:06.006Z,70.69
2022-12-03T06:10:33.639Z,70.15
2022-12-03T06:13:00.998Z,69.70
2022-12-03T06:15:28.419Z,69.45
2022-12-03T06:17:56.103Z,70.12
2022-12-03T06:20:23.431Z,70.32
2022-12-03T06:22:50.774Z,69.31
2022-12-03T06:25:18.467Z,71.34
2022-12-03T06:27:45.796Z,71.04
2022-12-03T06:30:13.751Z,69.72
2022-12-03T06:32:41.413Z,72.00
2022-12-03T06:35:09.155Z,70.88
2022-12-03T06:37:36.496Z,68.62
2022-12-03T06:40:04.324Z,69.34
2022-12-03T06:42:31.676Z,68.90
2022-12-03T06:44:59.035Z,70.33
2022-12-03T06:47:26.677Z,70.77
2022-12-03T06:49:54.022Z,70.24
2022-12-03T06:52:21.406Z,69.42
2022-12-03T06:54:49.050Z,69.18
2022-12-03T06:57:16.427Z,70.29
2022-12-03T06:59:43.760Z,68.99
2022-12-03T07:02:12.669Z,70.02
2022-12-03T07:04:44.839Z,68.40
2022-12-03T07:07:14.226Z,67.65
2022-12-03T07:09:41.567Z,69.66
2022-12-03T07:12:08.878Z,69.33
2022-12-03T07:14:36.636Z,70.41
2022-12-03T07:17:04.009Z,68.93
2022-12-03T07:19:32.933Z,69.47
2022-12-03T07:22:00.884Z,69.63
2022-12-03T07:24:28.209Z,69.68
2022-12-03T07:26:55.637Z,71.12
2022-12-03T07:29:23.317Z,68.85
2022-12-03T07:31:50.699Z,68.66
2022-12-03T07:34:18.050Z,68.87
2022-12-03T07:36:45.809Z,67.97
2022-12-03T07:39:13.528Z,67.96
2022-12-03T07:41:40.865Z,67.70
2022-12-03T07:44:13.967Z,66.77
2022-12-03T07:46:42.428Z,71.69
2022-12-03T07:49:10.311Z,68.21
2022-12-03T07:51:37.655Z,70.70
2022-12-03T07:54:05.089Z,71.32
2022-12-03T07:56:32.712Z,70.57
2022-12-03T07:59:00.075Z,70.50
2022-12-03T08:01:27.603Z,71.32
2022-12-03T08:03:55.293Z,72.09
2022-12-03T08:06:22.671Z,69.50
2022-12-03T08:08:50.419Z,68.46
2022-12-03T08:11:18.048Z,68.23
2022-12-03T08:13:45.407Z,68.69
2022-12-03T08:16:19.088Z,68.63
2022-12-03T08:18:47.210Z,69.78
2022-12-03T08:21:16.108Z,68.69
2022-12-03T08:23:43.550Z,69.67
2022-12-03T08:26:24.864Z,67.87
2022-12-03T08:28:52.778Z,70.27
2022-12-03T08:31:32.881Z,72.75
2022-12-03T08:34:20.369Z,70.99
2022-12-03T08:36:49.750Z,72.53
2022-12-03T08:39:37.896Z,71.00
2022-12-03T08:42:42.046Z,73.70
2022-12-03T08:45:28.042Z,71.70
2022-12-03T08:48:16.993Z,72.12
2022-12-03T08:50:44.592Z,73.09
2022-12-03T08:53:37.138Z,73.03
2022-12-03T08:56:06.650Z,69.98
2022-12-03T08:58:37.750Z,68.09
2022-12-03T09:01:11.221Z,68.21
2022-12-03T09:03:52.167Z,67.83
2022-12-03T09:06:19.650Z,66.96
2022-12-03T09:08:47.384Z,66.92
2022-12-03T09:11:14.802Z,68.88
2022-12-03T09:13:42.245Z,66.57
2022-12-03T09:16:09.870Z,68.62
2022-12-03T09:18:37.338Z,67.41
2022-12-03T09:21:04.954Z,66.08
2022-12-03T09:23:32.581Z,65.04
2022-12-03T09:25:59.979Z,68.01
2022-12-03T09:28:27.361Z,65.60
2022-12-03T09:30:54.983Z,66.51
2022-12-03T09:33:22.420Z,65.46
2022-12-03T09:35:49.825Z,65.67
2022-12-03T09:38:17.540Z,68.68
2022-12-03T09:40:44.890Z,66.79
2022-12-03T09:43:12.260Z,64.98
2022-12-03T09:45:40.018Z,67.61
2022-12-03T09:48:07.419Z,71.33
2022-12-03T09:50:34.806Z,67.81
2022-12-03T09:53:02.842Z,67.82
2022-12-03T09:55:30.439Z,67.00
2022-12-03T09:57:57.833Z,64.47
2022-12-03T10:00:29.584Z,63.95
2022-12-03T10:02:58.726Z,63.82
2022-12-03T10:05:26.114Z,62.65
2022-12-03T10:08:03.583Z,62.98
2022-12-03T10:10:31.241Z,62.90
2022-12-03T10:12:58.689Z,64.09
2022-12-03T10:15:26.046Z,64.07
2022-12-03T10:17:55.037Z,63.62
2022-12-03T10:20:23.177Z,63.44
2022-12-03T10:22:50.545Z,66.92
2022-12-03T10:25:21.992Z,68.54
2022-12-03T10:28:00.750Z,65.12
2022-12-03T10:30:28.758Z,67.03
2022-12-03T10:32:57.552Z,68.22
2022-12-03T10:35:46.035Z,65.55
2022-12-03T10:38:16.339Z,67.08
2022-12-03T10:40:43.799Z,66.28
2022-12-03T10:43:19.209Z,67.44
2022-12-03T10:45:47.797Z,71.70
2022-12-03T10:48:15.043Z,71.26
2022-12-03T10:50:55.905Z,69.74
2022-12-03T10:53:27.243Z,67.70
2022-12-03T10:55:59.621Z,68.36
2022-12-03T10:58:31.626Z,65.99
2022-12-03T11:00:59.110Z,65.99
2022-12-03T11:03:29.905Z,67.19
2022-12-03T11:05:57.443Z,65.57
2022-12-03T11:08:27.058Z,64.63
2022-12-03T11:11:08.231Z,65.75
2022-12-03T11:13:35.399Z,65.85
2022-12-03T11:16:04.946Z,63.93
2022-12-03T11:18:38.553Z,64.64
2022-12-03T11:21:11.648Z,62.71
2022-12-03T11:23:44.660Z,61.49
2022-12-03T11:26:19.222Z,61.03
2022-12-03T11:28:46.907Z,61.79
2022-12-03T11:31:37.469Z,62.63
2022-12-03T11:34:17.304Z,64.57
2022-12-03T11:37:09.408Z,62.07
2022-12-03T11:39:52.095Z,61.65
2022-12-03T11:42:26.172Z,63.69
2022-12-03T11:45:02.666Z,62.18
2022-12-03T11:47:40.914Z,60.78
2022-12-03T11:50:21.043Z,63.85
2022-12-03T11:52:56.481Z,63.77
2022-12-03T11:55:30.297Z,63.22
2022-12-03T11:58:05.724Z,63.24
2022-12-03T12:00:33.195Z,64.46
2022-12-03T12:03:00.880Z,63.38
2022-12-03T12:05:32.811Z,62.51
2022-12-03T12:08:01.295Z,64.14
2022-12-03T12:10:37.978Z,64.08
2022-12-03T12:13:05.401Z,67.06
2022-12-03T12:15:39.287Z,65.33
2022-12-03T12:18:37.624Z,66.83
2022-12-03T12:21:43.045Z,65.99
2022-12-03T12:24:36.601Z,68.30
2022-12-03T12:27:11.674Z,68.29
2022-12-03T12:29:39.862Z,66.49
2022-12-03T12:32:15.714Z,66.34
2022-12-03T12:34:45.027Z,66.09
2022-12-03T12:37:23.434Z,67.32
2022-12-03T12:39:53.314Z,65.25
2022-12-03T12:42:31.571Z,66.06
2022-12-03T12:45:01.344Z,64.04
2022-12-03T12:47:30.076Z,64.52
2022-12-03T12:49:58.523Z,66.83
2022-12-03T12:52:26.739Z,65.39
2022-12-03T12:54:54.372Z,63.97
2022-12-03T12:57:22.599Z,65.24
2022-12-03T12:59:50.680Z,65.21
2022-12-03T13:02:29.416Z,66.06
2022-12-03T13:04:56.889Z,64.95
2022-12-03T13:07:25.876Z,66.22
2022-12-03T13:09:55.824Z,65.20
2022-12-03T13:12:23.829Z,63.62
2022-12-03T13:14:52.185Z,62.83
2022-12-03T13:17:22.542Z,61.94
2022-12-03T13:19:58.208Z,62.81
2022-12-03T13:22:30.943Z,64.11
2022-12-03T13:24:59.453Z,64.45
2022-12-03T13:27:31.276Z,64.27
2022-12-03T13:30:08.420Z,63.50
2022-12-03T13:32:38.791Z,63.22
2022-12-03T13:35:07.547Z,63.67
2022-12-03T13:37:34.921Z,63.23
2022-12-03T13:40:20.109Z,65.34
2022-12-03T13:42:48.612Z,64.61
2022-12-03T13:45:18.975Z,63.74
2022-12-03T13:47:50.716Z,66.43
2022-12-03T13:50:36.584Z,65.48
2022-12-03T13:53:21.095Z,65.69
2022-12-03T13:56:19.956Z,64.90
2022-12-03T13:58:47.462Z,62.51
2022-12-03T14:01:15.132Z,62.07
2022-12-03T14:03:42.837Z,63.11
2022-12-03T14:06:10.224Z,64.29
2022-12-03T14:08:37.826Z,63.64
2022-12-03T14:11:05.587Z,62.97
2022-12-03T14:13:33.110Z,63.46
2022-12-03T14:16:00.545Z,64.86
2022-12-03T14:18:28.201Z,65.21
2022-12-03T14:20:55.607Z,63.28
2022-12-03T14:23:22.976Z,63.75
2022-12-03T14:25:50.733Z,65.85
2022-12-03T14:28:18.096Z,65.01
2022-12-03T14:30:45.508Z,65.86
2022-12-03T14:33:13.151Z,66.89
2022-12-03T14:35:40.847Z,66.26
2022-12-03T14:38:08.159Z,67.43
2022-12-03T14:40:35.892Z,66.09
2022-12-03T14:43:03.517Z,69.08
2022-12-03T14:45:30.916Z,67.14
2022-12-03T14:47:58.584Z,67.59
2022-12-03T14:50:26.180Z,66.98
2022-12-03T14:52:53.605Z,66.82
2022-12-03T14:55:21.300Z,65.05
2022-12-03T14:57:48.787Z,66.11
2022-12-03T15:00:16.583Z,64.08
2022-12-03T15:02:44.265Z,67.76
2022-12-03T15:05:11.809Z,67.02
2022-12-03T15:07:39.446Z,66.37
2022-12-03T15:10:07.920Z,64.69
2022-12-03T15:12:35.442Z,67.24
2022-12-03T15:15:02.828Z,68.03
2022-12-03T15:17:32.145Z,67.11
2022-12-03T15:19:59.814Z,67.53
2022-12-03T15:22:27.188Z,71.48
2022-12-03T15:24:54.846Z,69.17
2022-12-03T15:27:22.309Z,66.45
2022-12-03T15:29:49.718Z,66.08
2022-12-03T15:32:17.665Z,65.02
2022-12-03T15:34:45.076Z,66.12
2022-12-03T15:37:12.436Z,66.55
2022-12-03T15:39:46.552Z,66.83
2022-12-03T15:42:15.836Z,69.82
2022-12-03T15:44:43.623Z,69.22
2022-12-03T15:47:10.989Z,71.53
2022-12-03T15:49:38.387Z,69.13
2022-12-03T15:52:08.130Z,68.14
2022-12-03T15:54:35.509Z,66.93
2022-12-03T15:57:02.951Z,66.19
2022-12-03T15:59:30.648Z,68.68
2022-12-03T16:01:58.130Z,67.23
2022-12-03T16:04:25.921Z,69.60
2022-12-03T16:06:53.525Z,69.11
2022-12-03T16:09:26.705Z,68.29
2022-12-03T16:11:55.144Z,68.22
2022-12-03T16:14:22.589Z,68.04
2022-12-03T16:16:49.950Z,67.32
2022-12-03T16:19:17.598Z,68.00
2022-12-03T16:21:44.953Z,67.41
2022-12-03T16:24:12.308Z,65.80
2022-12-03T16:26:39.949Z,66.19
2022-12-03T16:29:09.482Z,69.09
2022-12-03T16:31:39.344Z,67.74
2022-12-03T16:34:09.844Z,70.39
2022-12-03T16:36:37.203Z,68.38
2022-12-03T16:39:04.926Z,68.15
2022-12-03T16:41:32.574Z,68.72
2022-12-03T16:44:02.563Z,69.91
2022-12-03T16:46:30.389Z,71.94
2022-12-03T16:48:58.278Z,70.44
2022-12-03T16:51:26.101Z,68.77
2022-12-03T16:53:53.790Z,67.23
2022-12-03T16:56:21.499Z,66.87
2022-12-03T16:58:48.862Z,66.58
2022-12-03T17:01:16.625Z,67.09
2022-12-03T17:03:44.412Z,68.20
2022-12-03T17:06:11.757Z,68.29
2022-12-03T17:08:41.041Z,67.95
2022-12-03T17:11:10.882Z,68.74
2022-12-03T17:13:38.250Z,70.28
2022-12-03T17:16:06.837Z,68.56
2022-12-03T17:18:34.540Z,68.93
2022-12-03T17:21:01.901Z,67.47
2022-12-03T17:23:29.257Z,68.69
2022-12-03T17:25:56.890Z,67.94
2022-12-03T17:28:24.322Z,71.16
2022-12-03T17:30:51.759Z,71.53
2022-12-03T17:33:19.377Z,69.67
2022-12-03T17:35:46.707Z,69.19
2022-12-03T17:38:14.065Z,69.62
2022-12-03T17:40:41.735Z,69.95
2022-12-03T17:43:09.184Z,72.37
2022-12-03T17:45:36.785Z,73.56
2022-12-03T17:48:04.718Z,71.11
2022-12-03T17:50:32.125Z,71.73
2022-12-03T17:52:59.578Z,71.68
2022-12-03T17:55:37.038Z,72.47
2022-12-03T17:58:08.448Z,72.64
2022-12-03T18:00:36.156Z,72.96
2022-12-03T18:03:03.798Z,71.64
2022-12-03T18:05:31.184Z,72.32
2022-12-03T18:07:58.605Z,72.76
2022-12-03T18:10:26.247Z,71.84
2022-12-03T18:12:58.330Z,69.94
2022-12-03T18:15:29.211Z,69.04
2022-12-03T18:17:56.649Z,69.94
2022-12-03T18:20:23.977Z,70.08
2022-12-03T18:22:51.588Z,68.59
2022-12-03T18:25:18.941Z,68.67
2022-12-03T18:27:46.260Z,68.32
2022-12-03T18:30:14.008Z,67.92
2022-12-03T18:32:41.471Z,67.83
2022-12-03T18:35:08.889Z,69.35
2022-12-03T18:37:36.473Z,69.34
2022-12-03T18:40:12.458Z,68.37
2022-12-03T18:42:40.883Z,67.80
2022-12-03T18:45:10.672Z,68.07
2022-12-03T18:47:38.089Z,70.20
2022-12-03T18:50:07.050Z,71.39
2022-12-03T18:52:34.422Z,71.47
2022-12-03T18:55:01.886Z,70.31
2022-12-03T18:57:29.468Z,72.09
2022-12-03T18:59:57.230Z,72.66
2022-12-03T19:05:12.405Z,72.67
2022-12-03T19:07:39.868Z,73.88
2022-12-03T19:10:07.944Z,74.28
2022-12-03T19:12:35.888Z,71.91
2022-12-03T19:15:03.672Z,70.58
2022-12-03T19:17:31.443Z,69.78
2022-12-03T19:19:59.176Z,72.31
2022-12-03T19:22:26.533Z,70.94
2022-12-03T19:24:53.839Z,70.40
2022-12-03T19:27:21.522Z,73.50
2022-12-03T19:29:48.955Z,71.47
2022-12-03T19:32:16.324Z,69.10
2022-12-03T19:34:44.038Z,69.13
2022-12-03T19:37:11.376Z,75.74
2022-12-03T19:39:38.696Z,74.01
2022-12-03T19:42:06.417Z,74.15
2022-12-03T19:44:33.729Z,72.75
2022-12-03T19:47:01.084Z,73.23
2022-12-03T19:49:28.699Z,72.67
2022-12-03T19:51:56.179Z,73.64
2022-12-03T19:54:24.346Z,72.48
2022-12-03T19:56:51.981Z,73.72
2022-12-03T19:59:19.351Z,73.03
2022-12-03T20:01:46.949Z,72.77
2022-12-03T20:04:14.821Z,71.75
2022-12-03T20:06:42.170Z,70.44
2022-12-03T20:09:13.495Z,69.99
2022-12-03T20:11:41.443Z,69.05
2022-12-03T20:14:10.497Z,68.93
2022-12-03T20:16:37.876Z,69.21
2022-12-03T20:19:06.214Z,67.75
2022-12-03T20:21:35.026Z,68.28
2022-12-03T20:24:02.400Z,69.59
2022-12-03T20:26:30.048Z,67.61
2022-12-03T20:28:57.448Z,72.05
2022-12-03T20:31:28.672Z,72.93
2022-12-03T20:33:58.229Z,71.41
2022-12-03T20:36:25.752Z,69.79
2022-12-03T20:38:57.168Z,74.32
2022-12-03T20:41:24.894Z,72.52
2022-12-03T20:43:52.249Z,73.27
2022-12-03T20:46:21.503Z,71.00
2022-12-03T20:48:49.131Z,71.66
2022-12-03T20:51:18.117Z,70.95
2022-12-03T20:53:45.769Z,71.91
2022-12-03T20:56:27.753Z,70.39
2022-12-03T20:58:55.082Z,73.53
2022-12-03T21:01:24.795Z,72.64
2022-12-03T21:03:52.979Z,71.82
2022-12-03T21:06:20.818Z,72.30
2022-12-03T21:08:48.759Z,72.73
2022-12-03T21:11:18.351Z,72.66
2022-12-03T21:13:45.804Z,70.78
2022-12-03T21:16:15.295Z,70.29
2022-12-03T21:18:42.784Z,70.24
2022-12-03T21:21:14.126Z,69.65
2022-12-03T21:23:41.741Z,72.46
2022-12-03T21:26:11.802Z,72.45
2022-12-03T21:28:39.838Z,71.39
2022-12-03T21:31:08.949Z,72.51
2022-12-03T21:33:36.440Z,70.62
2022-12-03T21:36:04.856Z,72.40
2022-12-03T21:38:32.652Z,71.25
2022-12-03T21:41:00.136Z,71.03
2022-12-03T21:43:27.587Z,70.74
2022-12-03T21:45:55.292Z,70.84
2022-12-03T21:48:22.785Z,70.52
2022-12-03T21:51:00.609Z,73.83
2022-12-03T21:53:28.459Z,71.85
2022-12-03T21:55:55.947Z,70.32
2022-12-03T21:58:23.328Z,72.19
2022-12-03T22:00:51.118Z,71.76
2022-12-03T22:03:18.788Z,72.50
2022-12-03T22:05:46.214Z,71.53
2022-12-03T22:08:13.862Z,72.26
2022-12-03T22:10:41.658Z,70.44
2022-12-03T22:13:09.070Z,71.92
2022-12-03T22:15:40.149Z,70.55
2022-12-03T22:18:07.799Z,73.03
2022-12-03T22:20:35.132Z,74.63
2022-12-03T22:23:02.501Z,75.11
2022-12-03T22:25:30.593Z,73.11
2022-12-03T22:27:57.982Z,73.52
2022-12-03T22:30:25.461Z,74.36
2022-12-03T22:32:53.067Z,74.63
2022-12-03T22:35:20.407Z,76.02
2022-12-03T22:37:47.853Z,73.66
2022-12-03T22:40:15.654Z,73.05
2022-12-03T22:42:47.774Z,74.03
2022-12-03T22:45:18.431Z,71.95
2022-12-03T22:47:45.766Z,70.98
2022-12-03T22:50:13.139Z,72.10
2022-12-03T22:52:40.771Z,70.04
2022-12-03T22:55:08.514Z,73.00
2022-12-03T22:57:36.004Z,71.09
2022-12-03T23:00:06.974Z,71.38
2022-12-03T23:02:34.367Z,72.39
2022-12-03T23:05:01.734Z,73.25
2022-12-03T23:07:29.439Z,71.53
2022-12-03T23:09:57.076Z,75.01
2022-12-03T23:12:24.660Z,73.95
2022-12-03T23:14:54.178Z,76.35
2022-12-03T23:17:21.617Z,77.31
2022-12-03T23:19:48.945Z,75.08
2022-12-03T23:22:16.574Z,74.50
2022-12-03T23:24:43.929Z,73.93
2022-12-03T23:27:11.252Z,72.00
2022-12-03T23:29:38.882Z,73.27
2022-12-03T23:32:06.195Z,73.85
2022-12-03T23:34:33.602Z,72.94
2022-12-03T23:37:01.315Z,73.04
2022-12-03T23:39:28.676Z,71.60
2022-12-03T23:41:56.018Z,71.81
2022-12-03T23:44:23.731Z,75.15
2022-12-03T23:46:51.242Z,75.10
2022-12-03T23:49:18.616Z,74.05
2022-12-03T23:51:46.264Z,72.07
2022-12-03T23:54:13.595Z,72.05
2022-12-03T23:56:41.012Z,75.07
2022-12-03T23:59:08.788Z,72.96
